Aérodrome :
LOGIN :

S'inscrire | Disclaimer

   EN    FR    IT 

 










Légende :    VFR   VFR Marginal   IFR   IFR Intensif   IFR Très Intensif
Visi : 
Plafond : 
>= 8 km
>= 3000ft
5 à 8 km
1000 à 3000 ft
1500m à 5 km
500 à 1000 ft
800 à 1500m
200 à 500 ft
< 800m
< 200 ft
Symboles :   Orages  Brouillard  Fortes neiges  Fortes précipitations  Vent > 20 kt
SIGMETs :   Divers  Orages  Givrage  Turbulence  Onde Orograph.  Cendres Volcan.







- Altitude de l'aérodrome : 308 ft
- Code IATA : POZ


EPPO - Poznan-Lawica

DERNIER METAR :
  • 181530Z 15017KT 9999 -SN OVC003 00/00 Q0985 RESN R10/590191

METARs EXPIRÉS :
  • 181500Z 15017KT 1100 R28/1900 SN BR OVC003 00/00 Q0985 R10/690191
  • 181430Z 14019KT 2000 SN BR OVC003 00/M00 Q0987 R10/29//95
  • 181400Z 15017KT 0700 R28/1400 SN BR OVC003 00/M00 Q0988 R10/29//95
  • 181330Z 15018G28KT 3100 -SN BR OVC008 01/00 Q0990 R10/29//95
  • 181300Z 17017KT 9999 -SN BKN026 02/M01 Q0991 R10/29//95

TAF AMD TAF EPPO
Valide du 18 à 14h jusqu'au 19 à 12h UTC


181412Z 1814/1912 18015G25KT 1400 SN BR OVC003 OVC013
BECMG 1814/1817 27020G35KT
TEMPO 1817/1903 29025G50KT 0700 SHSN BKN011CB
BECMG 1903/1905 28008KT 9999 NSW BKN020
TEMPO 1906/1912 4500 -SN BR BKN014CB
Pas de NOTAMs connus pour ce terrain.
3 SIGMETs publiés pour la FIR Warszawa (EPWW) :
 
Turbulence forte
EPWW SIGMET 4 VALID 181410/181710 EPWA
EPWW WARSAW FIR SEV TURB FCST W OF LINE N5330 E01420 - N5330 E01850 - N5140 E02010 - N4920 E02000 SFC/FL070 MOV E NC=
Annulation du SIGMET 2 
EPWW SIGMET 3 VALID 181408/181700 EPWA
EPWW WARSAW FIR CNL SIGMET 2 181400/181700=
SIGMET 2  ANNULÉ :
Turbulence forte
EPWW SIGMET 2 VALID 181400/181700 EPWA
EPWW WARSAW FIR SEV TURB FCST N5330 E01420 - N5330 E01850 - N5140 E02010 - N4920 E02000 SFC/FL070 MOV E NC=



MET'MAP, la Météo Aéronautique d'un coup d'oeil ! - Copyright ORBIFLY Décembre 2007 - Disclaimer

ORBIFLY MET'MAP TEAM :

Programmation & Développement : Alexandra Zaïnal
Conception & Développement : Baudouin d'Aumeries
Co-Programmation & Développement : Marc-Olivier Méhu
Soutien technique & logistique : Manuel Goepfert

Contact : metmap@orbifly.com




SOURCES & CREDITS :

   NOAA